Airfield :
LOGIN :

Register | Disclaimer

   EN    FR    IT 

 










Legend :    VFR   Marginal VFR   IFR   Intensive IFR   Very Intensive IFR
Visi :
Ceiling :
>= 8 km
>= 3000ft
5 to 8 km
1000 to 3000 ft
1500m to 5 km
500 to 1000 ft
800 to 1500m
200 to 500 ft
< 800m
< 200 ft
Symbols :   Thunderstorms  Fog  Heavy snow  Heavy precipitations  Wind > 20 kt
SIGMETs :     Misc.  Thunderstorms  Icing  Turbulence  Mountain Waves  Volcanic Ashes







- Airport Elevation : 326 ft
- IATA code : LCG
- Download approach charts


LECO - A Coruna

CURRENT METAR :
  • 150030Z AUTO 28006KT 250V320 5000 RA SCT025/// BKN030/// BKN035/// 10/10 Q1016

EXPIRED METARs :
  • 150000Z 26006KT 240V300 9999 SCT024 BKN030 11/09 Q1016 NOSIG
  • 142330Z 28005KT 240V330 7000 -DZ SCT020 BKN030 11/09 Q1016 NOSIG
  • 142300Z 27006KT 240V320 9999 FEW020 BKN034 12/08 Q1016 NOSIG
  • 142230Z 25006KT 220V280 9999 FEW020 BKN045 11/08 Q1016 NOSIG
  • 142200Z 27005KT 230V300 9999 FEW020 11/09 Q1016 NOSIG

TAF TAF LECO
Valid from the 14 at 21:00 until the 15 at 21:00 UTC


142000Z 1421/1521 28009KT 8000 SCT010 BKN030 TX13/1514Z TN07/1506Z
BECMG 1502/1505 34010KT
PROB30
TEMPO 1421/1508 4000 RA BKN010
No reported NOTAMs for that airfield.
1 SIGMET reported for the Madrid FIR (LECM) :
 
Severe turbulence
LECM SIGMET 1 VALID 150015/150400 LEVA
LECM MADRID FIR SEV TURB FCST E OF LINE N4453 W00734 - N4334 W00649 SFC/FL040 STNR WKN=



MET'MAP, your aeronautical weather chart ! - Copyright ORBIFLY December 2007 - Disclaimer

ORBIFLY MET'MAP TEAM :

Programming & Development : Alexandra Zaïnal
Concept & Development : Baudouin d'Aumeries
Co-Development & Prog : Marc-Olivier Méhu
Technical & hardware support : Manuel Goepfert

Contact : metmap@orbifly.com




SOURCES & CREDITS :

   NOAA